Time;durP1;ratioP1;P1;durP2;ratioP2;P2;SDS_P1;SDS_P2;PMS_P1;PMS_P2;Temp;Humidity;BMP_temperature;BMP_pressure;BME280_temperature;BME280_humidity;BME280_pressure;Samples;Min_cycle;Max_cycle;Signal;HPM_P1;HPM_P2
2024/01/02 00:01:34;;;;;;;;;;;;;;;13.01;49.92;100683.63;5053072;28;20385;-82
2024/01/02 00:03:59;;;;;;;;;;;;;;;12.97;49.94;100682.56;5052928;28;19925;-82
2024/01/02 00:06:24;;;;;;;;;;;;;;;12.95;49.79;100683.91;5051467;28;20048;-82
2024/01/02 00:08:49;;;;;;;;;;;;;;;12.88;49.83;100680.63;5051720;28;19925;-83
2024/01/02 00:11:15;;;;;;;;;;;;;;;12.84;49.87;100676.88;5052047;28;20389;-82
2024/01/02 00:13:40;;;;;;;;;;;;;;;12.77;49.82;100679.81;5050517;28;19931;-82
2024/01/02 00:16:05;;;;;;;;;;;;;;;12.71;50.28;100680.84;5049899;28;19929;-82
2024/01/02 00:18:31;;;;;;;;;;;;;;;12.64;49.88;100681.09;5051493;28;20023;-82
2024/01/02 00:20:56;;;;;;;;;;;;;;;12.60;49.96;100681.91;5047700;28;19968;-82
2024/01/02 00:23:21;;;;;;;;;;;;;;;12.58;49.99;100673.31;5053282;28;20011;-82
2024/01/02 00:25:47;;;;;;;;;;;;;;;12.57;50.05;100679.75;5050435;28;20576;-82
2024/01/02 00:28:12;;;;;;;;;;;;;;;12.50;49.98;100677.28;5049350;28;19979;-82
2024/01/02 00:30:39;;;;;;;;;;;;;;;12.51;50.04;100672.72;5051022;28;19925;-82
2024/01/02 00:33:05;;;;;;;;;;;;;;;12.54;50.25;100656.06;5049746;28;19928;-81
2024/01/02 00:35:30;;;;;;;;;;;;;;;12.53;50.17;100659.81;5052258;28;19929;-83
2024/01/02 00:37:55;;;;;;;;;;;;;;;12.53;50.13;100657.13;5050251;28;20376;-82
2024/01/02 00:40:21;;;;;;;;;;;;;;;12.58;50.15;100662.53;5051527;28;19924;-82
2024/01/02 00:42:46;;;;;;;;;;;;;;;12.55;49.95;100658.47;5052250;28;19936;-82
2024/01/02 00:45:11;;;;;;;;;;;;;;;12.58;49.85;100657.97;5052956;28;19920;-82
2024/01/02 00:47:36;;;;;;;;;;;;;;;12.58;49.76;100660.66;5050211;28;20118;-82
2024/01/02 00:50:03;;;;;;;;;;;;;;;12.57;49.78;100658.25;5049547;28;19932;-82
2024/01/02 00:52:28;;;;;;;;;;;;;;;12.60;50.19;100660.41;5050342;28;20327;-82
2024/01/02 00:54:54;;;;;;;;;;;;;;;12.65;49.78;100660.41;5051290;28;19928;-82
2024/01/02 00:57:19;;;;;;;;;;;;;;;12.68;49.75;100655.31;5053993;28;20344;-82
2024/01/02 00:59:44;;;;;;;;;;;;;;;12.66;49.89;100649.38;5050881;28;21618;-82
2024/01/02 01:02:10;;;;;;;;;;;;;;;12.71;49.87;100653.97;5049836;28;20385;-82
2024/01/02 01:04:35;;;;;;;;;;;;;;;12.74;49.61;100658.00;5050213;28;19925;-82
2024/01/02 01:07:00;;;;;;;;;;;;;;;12.75;49.57;100659.63;5051725;28;20384;-82
2024/01/02 01:09:26;;;;;;;;;;;;;;;12.75;49.59;100652.38;5051836;28;19921;-82
2024/01/02 01:11:51;;;;;;;;;;;;;;;12.72;49.73;100658.28;5049912;28;19931;-83
2024/01/02 01:14:16;;;;;;;;;;;;;;;12.74;49.55;100655.31;5050344;28;20079;-82
2024/01/02 01:16:41;;;;;;;;;;;;;;;12.76;49.48;100672.00;5050023;28;19920;-82
2024/01/02 01:19:07;;;;;;;;;;;;;;;12.73;49.08;100664.44;5050088;28;21260;-82
2024/01/02 01:21:32;;;;;;;;;;;;;;;12.74;49.71;100660.69;5050215;28;19963;-82
2024/01/02 01:23:57;;;;;;;;;;;;;;;12.78;49.42;100665.31;5048443;28;20022;-81
2024/01/02 01:26:23;;;;;;;;;;;;;;;12.78;49.28;100662.63;5050264;28;20014;-82
2024/01/02 01:28:48;;;;;;;;;;;;;;;12.73;49.42;100659.88;5050601;28;20401;-82
2024/01/02 01:31:13;;;;;;;;;;;;;;;12.69;49.32;100664.19;5049421;28;19929;-82
2024/01/02 01:33:38;;;;;;;;;;;;;;;12.72;49.41;100663.66;5047920;28;19925;-83
2024/01/02 01:36:04;;;;;;;;;;;;;;;12.71;49.46;100662.03;5049748;28;20031;-82
2024/01/02 01:38:30;;;;;;;;;;;;;;;12.75;49.50;100660.47;5049656;28;19924;-82
2024/01/02 01:40:55;;;;;;;;;;;;;;;12.74;49.44;100661.50;5051958;28;21239;-81
2024/01/02 01:43:20;;;;;;;;;;;;;;;12.73;49.38;100661.78;5050127;28;19916;-82
2024/01/02 01:45:46;;;;;;;;;;;;;;;12.73;49.51;100659.06;5049276;28;19932;-82
2024/01/02 01:48:11;;;;;;;;;;;;;;;12.72;49.50;100658.28;5049847;28;19978;-82
2024/01/02 01:50:37;;;;;;;;;;;;;;;12.73;49.48;100657.19;5051068;28;20011;-82
2024/01/02 01:53:03;;;;;;;;;;;;;;;12.71;49.71;100659.34;5049804;28;19924;-82
2024/01/02 01:55:28;;;;;;;;;;;;;;;12.75;49.23;100656.94;5049604;28;19935;-82
2024/01/02 01:57:54;;;;;;;;;;;;;;;12.69;49.57;100662.31;5050853;28;19924;-81
2024/01/02 02:00:19;;;;;;;;;;;;;;;12.72;49.47;100655.59;5047083;28;19932;-82
2024/01/02 02:02:45;;;;;;;;;;;;;;;12.66;49.35;100659.34;5050572;28;20637;-82
2024/01/02 02:05:10;;;;;;;;;;;;;;;12.65;49.47;100663.91;5049512;28;20022;-82
2024/01/02 02:07:40;;;;;;;;;;;;;;;12.70;49.50;100665.78;5048783;28;20497;-82
2024/01/02 02:10:06;;;;;;;;;;;;;;;12.73;49.67;100665.25;5050724;28;19928;-82
2024/01/02 02:12:31;;;;;;;;;;;;;;;12.74;49.45;100661.50;5049853;28;19971;-82
2024/01/02 02:14:56;;;;;;;;;;;;;;;12.73;49.21;100665.25;5049351;28;19936;-82
2024/01/02 02:17:22;;;;;;;;;;;;;;;12.71;49.30;100656.66;5049454;28;19924;-82
2024/01/02 02:19:47;;;;;;;;;;;;;;;12.69;49.52;100656.91;5050053;28;20387;-83
2024/01/02 02:22:13;;;;;;;;;;;;;;;12.73;49.62;100659.88;5049322;28;20100;-82
2024/01/02 02:24:38;;;;;;;;;;;;;;;12.75;49.39;100649.69;5050855;28;19924;-82
2024/01/02 02:27:05;;;;;;;;;;;;;;;12.74;49.38;100656.13;5048706;28;19931;-82
2024/01/02 02:29:31;;;;;;;;;;;;;;;12.76;49.15;100655.88;5049935;28;20812;-82
2024/01/02 02:31:56;;;;;;;;;;;;;;;12.73;49.49;100653.69;5048566;28;19958;-82
2024/01/02 02:34:21;;;;;;;;;;;;;;;12.74;49.48;100650.75;5051448;28;20019;-82
2024/01/02 02:36:47;;;;;;;;;;;;;;;12.77;49.42;100649.44;5049759;28;20457;-82
2024/01/02 02:39:12;;;;;;;;;;;;;;;12.76;49.22;100645.94;5049456;28;20483;-82
2024/01/02 02:41:37;;;;;;;;;;;;;;;12.75;49.44;100649.69;5049119;28;19931;-82
2024/01/02 02:44:02;;;;;;;;;;;;;;;12.75;49.14;100657.78;5052093;28;19939;-82
2024/01/02 02:46:28;;;;;;;;;;;;;;;12.71;49.32;100648.59;5053441;28;20450;-82
2024/01/02 02:48:53;;;;;;;;;;;;;;;12.68;49.25;100654.50;5052563;28;21257;-82
2024/01/02 02:51:18;;;;;;;;;;;;;;;12.72;49.25;100652.91;5052583;28;19932;-82
2024/01/02 02:53:43;;;;;;;;;;;;;;;12.74;49.30;100644.56;5050997;28;19931;-82
2024/01/02 02:56:14;;;;;;;;;;;;;;;12.74;49.03;100653.44;5051154;28;19928;-82
2024/01/02 02:58:39;;;;;;;;;;;;;;;12.67;49.09;100645.63;5050164;28;20018;-83
2024/01/02 03:01:04;;;;;;;;;;;;;;;12.65;49.34;100649.66;5053955;28;20397;-82
2024/01/02 03:03:29;;;;;;;;;;;;;;;12.62;49.39;100644.81;5053523;28;19924;-82
2024/01/02 03:05:55;;;;;;;;;;;;;;;12.63;49.25;100641.06;5067337;28;19924;-82
2024/01/02 03:08:22;;;;;;;;;;;;;;;12.67;49.36;100645.63;5052724;28;19934;-82
2024/01/02 03:10:50;;;;;;;;;;;;;;;12.66;49.34;100643.22;5051800;28;19932;-83
2024/01/02 03:13:15;;;;;;;;;;;;;;;12.67;49.34;100639.44;5051990;28;19970;-83
2024/01/02 03:15:41;;;;;;;;;;;;;;;12.70;49.47;100638.91;5052322;28;19925;-82
2024/01/02 03:18:06;;;;;;;;;;;;;;;12.73;49.40;100638.38;5051993;28;19921;-82
2024/01/02 03:20:32;;;;;;;;;;;;;;;12.75;49.04;100636.25;5052847;28;19931;-82
2024/01/02 03:22:57;;;;;;;;;;;;;;;12.73;49.29;100635.69;5053212;28;19932;-83
2024/01/02 03:25:22;;;;;;;;;;;;;;;12.74;49.27;100629.25;5084334;27;19929;-82
2024/01/02 03:27:48;;;;;;;;;;;;;;;12.74;49.21;100625.75;5051947;28;19974;-82
2024/01/02 03:30:13;;;;;;;;;;;;;;;12.78;49.24;100634.91;5051347;28;19925;-82
2024/01/02 03:32:38;;;;;;;;;;;;;;;12.74;48.67;100637.31;5068933;28;20023;-82
2024/01/02 03:35:04;;;;;;;;;;;;;;;12.71;49.15;100621.72;5052931;28;19974;-82
2024/01/02 03:37:29;;;;;;;;;;;;;;;12.71;49.16;100624.41;5052506;28;19916;-83
2024/01/02 03:39:54;;;;;;;;;;;;;;;12.73;49.26;100626.81;5051090;28;19924;-82
2024/01/02 03:42:20;;;;;;;;;;;;;;;12.73;49.03;100619.56;5051343;28;20598;-83
2024/01/02 03:44:45;;;;;;;;;;;;;;;12.74;49.19;100602.34;5049536;28;19924;-82
2024/01/02 03:47:10;;;;;;;;;;;;;;;12.73;49.01;100605.31;5052812;28;19920;-82
2024/01/02 03:49:36;;;;;;;;;;;;;;;12.67;49.29;100596.44;5052766;28;20349;-83
2024/01/02 03:52:01;;;;;;;;;;;;;;;12.64;49.31;100586.22;5051945;28;19924;-82
2024/01/02 03:54:26;;;;;;;;;;;;;;;12.64;49.21;100588.91;5052064;28;19929;-82
2024/01/02 03:56:51;;;;;;;;;;;;;;;12.63;49.03;100587.28;5053213;28;19928;-82
2024/01/02 03:59:17;;;;;;;;;;;;;;;12.60;49.14;100582.47;5050450;28;20592;-82
2024/01/02 04:01:42;;;;;;;;;;;;;;;12.61;49.26;100578.69;5050872;28;19916;-83
2024/01/02 04:04:08;;;;;;;;;;;;;;;12.61;49.32;100582.19;5053930;28;19925;-82
2024/01/02 04:06:33;;;;;;;;;;;;;;;12.62;49.31;100573.06;5050852;28;19946;-82
2024/01/02 04:08:58;;;;;;;;;;;;;;;12.61;49.17;100562.56;5050880;28;19932;-82
2024/01/02 04:11:23;;;;;;;;;;;;;;;12.59;48.98;100567.41;5047614;28;19925;-82
2024/01/02 04:13:49;;;;;;;;;;;;;;;12.57;49.08;100558.81;5049377;28;19966;-82
2024/01/02 04:16:14;;;;;;;;;;;;;;;12.51;48.96;100562.53;5051228;28;19928;-82
2024/01/02 04:18:40;;;;;;;;;;;;;;;12.47;49.01;100564.13;5049485;28;19932;-82
2024/01/02 04:21:05;;;;;;;;;;;;;;;12.44;48.99;100557.41;5049579;28;20404;-83
2024/01/02 04:23:30;;;;;;;;;;;;;;;12.42;49.04;100550.69;5049900;28;20469;-82
2024/01/02 04:25:55;;;;;;;;;;;;;;;12.37;49.10;100546.09;5047800;28;19924;-82
2024/01/02 04:28:21;;;;;;;;;;;;;;;12.34;49.15;100542.06;5050098;28;19966;-82
2024/01/02 04:30:46;;;;;;;;;;;;;;;12.33;49.16;100539.66;5048728;28;20457;-82
2024/01/02 04:33:11;;;;;;;;;;;;;;;12.30;48.94;100537.50;5048933;28;19925;-82
2024/01/02 04:35:37;;;;;;;;;;;;;;;12.26;48.92;100531.84;5049423;28;20437;-82
2024/01/02 04:38:02;;;;;;;;;;;;;;;12.23;48.90;100529.69;5049121;28;19932;-82
2024/01/02 04:40:27;;;;;;;;;;;;;;;12.20;49.15;100538.25;5048461;28;20562;-83
2024/01/02 04:42:52;;;;;;;;;;;;;;;12.17;49.12;100529.91;5048681;28;20541;-82
2024/01/02 04:45:18;;;;;;;;;;;;;;;12.13;49.00;100535.03;5051511;28;19932;-82
2024/01/02 04:47:43;;;;;;;;;;;;;;;12.09;49.26;100525.88;5049104;28;20381;-82
2024/01/02 04:50:08;;;;;;;;;;;;;;;12.04;49.24;100520.50;5049569;28;19971;-82
2024/01/02 04:52:34;;;;;;;;;;;;;;;12.00;49.21;100516.69;5050429;28;20404;-82
2024/01/02 04:55:00;;;;;;;;;;;;;;;11.97;49.21;100509.19;5049426;28;20402;-82
2024/01/02 04:57:25;;;;;;;;;;;;;;;11.94;48.94;100510.50;5049775;28;19917;-81
2024/01/02 04:59:50;;;;;;;;;;;;;;;11.90;49.20;100498.69;5048611;28;19988;-82
2024/01/02 05:02:16;;;;;;;;;;;;;;;11.87;49.28;100504.59;5050546;28;20492;-82
2024/01/02 05:04:41;;;;;;;;;;;;;;;11.85;49.17;100501.38;5049275;28;19916;-82
2024/01/02 05:07:06;;;;;;;;;;;;;;;11.82;49.30;100501.88;5049501;28;19955;-82
2024/01/02 05:09:32;;;;;;;;;;;;;;;11.76;49.10;100506.38;5048588;28;19960;-82
2024/01/02 05:11:57;;;;;;;;;;;;;;;11.72;49.14;100494.56;5046046;28;20790;-82
2024/01/02 05:14:22;;;;;;;;;;;;;;;11.68;49.10;100490.78;5048974;28;19924;-82
2024/01/02 05:16:47;;;;;;;;;;;;;;;11.65;49.13;100491.28;5049616;28;19924;-82
2024/01/02 05:19:13;;;;;;;;;;;;;;;11.63;49.00;100490.75;5048461;28;19981;-82
2024/01/02 05:21:38;;;;;;;;;;;;;;;11.58;49.28;100490.72;5048546;28;19927;-82
2024/01/02 05:24:04;;;;;;;;;;;;;;;11.57;49.13;100486.44;5048068;28;19932;-82
2024/01/02 05:26:29;;;;;;;;;;;;;;;11.54;49.47;100492.31;5047215;28;19928;-83
2024/01/02 05:28:54;;;;;;;;;;;;;;;11.52;49.46;100483.72;5047894;28;19952;-82
2024/01/02 05:31:19;;;;;;;;;;;;;;;11.51;49.29;100479.44;5045982;28;20671;-82
2024/01/02 05:33:45;;;;;;;;;;;;;;;11.50;49.32;100480.50;5048740;28;19931;-82
2024/01/02 05:36:10;;;;;;;;;;;;;;;11.48;49.54;100483.41;5048485;28;19928;-83
2024/01/02 05:38:35;;;;;;;;;;;;;;;11.47;49.21;100486.38;5054467;28;19924;-81
2024/01/02 05:41:00;;;;;;;;;;;;;;;11.43;49.30;100478.03;5048936;28;19927;-82
2024/01/02 05:43:26;;;;;;;;;;;;;;;11.39;49.49;100481.50;5048530;28;19947;-82
2024/01/02 05:45:51;;;;;;;;;;;;;;;11.34;49.65;100478.78;5049326;28;19921;-82
2024/01/02 05:48:17;;;;;;;;;;;;;;;11.34;49.62;100468.06;5050132;28;19924;-82
2024/01/02 05:50:42;;;;;;;;;;;;;;;11.34;49.73;100476.13;5048853;28;21086;-82
2024/01/02 05:53:10;;;;;;;;;;;;;;;11.35;49.72;100475.03;5050587;28;19924;-82
2024/01/02 05:55:36;;;;;;;;;;;;;;;11.33;49.24;100469.13;5049566;28;19970;-82
2024/01/02 05:58:01;;;;;;;;;;;;;;;11.28;49.53;100461.84;5050319;28;20007;-82
2024/01/02 06:00:26;;;;;;;;;;;;;;;11.26;49.21;100463.19;5049565;28;19931;-81
2024/01/02 06:02:53;;;;;;;;;;;;;;;11.23;49.56;100461.81;5050853;28;21133;-82
2024/01/02 06:05:18;;;;;;;;;;;;;;;11.20;49.17;100467.72;5050885;28;19924;-81
2024/01/02 06:07:43;;;;;;;;;;;;;;;11.19;49.48;100463.41;5049933;28;20006;-82
2024/01/02 06:10:09;;;;;;;;;;;;;;;11.15;49.27;100459.66;5050284;28;19936;-83
2024/01/02 06:12:34;;;;;;;;;;;;;;;11.10;49.50;100465.75;5049136;28;20056;-83
2024/01/02 06:14:59;;;;;;;;;;;;;;;11.07;49.54;100462.78;5050618;28;19933;-82
2024/01/02 06:17:24;;;;;;;;;;;;;;;11.06;49.56;100464.66;5081852;28;20490;-82
2024/01/02 06:19:50;;;;;;;;;;;;;;;11.05;49.31;100460.38;5051530;28;19979;-82
2024/01/02 06:22:15;;;;;;;;;;;;;;;11.03;49.69;100465.19;5053019;28;19924;-82
2024/01/02 06:24:40;;;;;;;;;;;;;;;11.02;49.36;100457.41;5052382;28;20484;-83
2024/01/02 06:27:05;;;;;;;;;;;;;;;10.96;49.35;100448.53;5053577;28;20014;-82
2024/01/02 06:29:31;;;;;;;;;;;;;;;10.93;49.60;100449.00;5053603;28;20015;-81
2024/01/02 06:31:56;;;;;;;;;;;;;;;10.90;49.65;100439.63;5053876;28;19925;-81
2024/01/02 06:34:21;;;;;;;;;;;;;;;10.89;49.68;100447.94;5054251;28;19928;-82
2024/01/02 06:36:46;;;;;;;;;;;;;;;10.85;49.61;100442.28;5054356;28;20015;-82
2024/01/02 06:39:15;;;;;;;;;;;;;;;10.83;49.71;100440.91;5054014;28;19946;-82
2024/01/02 06:41:40;;;;;;;;;;;;;;;10.81;49.71;100445.72;5052540;28;20030;-82
2024/01/02 06:44:05;;;;;;;;;;;;;;;10.77;49.49;100431.22;5051811;28;20299;-82
2024/01/02 06:46:30;;;;;;;;;;;;;;;10.77;49.70;100437.41;5053405;28;19924;-82
2024/01/02 06:48:56;;;;;;;;;;;;;;;10.78;49.68;100433.66;5052748;28;21819;-82
2024/01/02 06:51:21;;;;;;;;;;;;;;;10.78;49.86;100420.25;5053989;28;19925;-82
2024/01/02 06:53:46;;;;;;;;;;;;;;;10.78;49.79;100422.94;5051189;28;19924;-81
2024/01/02 06:56:11;;;;;;;;;;;;;;;10.73;49.69;100432.78;5052709;28;19929;-82
2024/01/02 06:58:37;;;;;;;;;;;;;;;10.71;49.59;100425.00;5084519;27;19932;-82
2024/01/02 07:01:02;;;;;;;;;;;;;;;10.70;49.84;100414.56;5050961;28;19925;-82
2024/01/02 07:03:28;;;;;;;;;;;;;;;10.66;49.88;100414.25;5052346;28;19952;-81
2024/01/02 07:05:53;;;;;;;;;;;;;;;10.65;49.67;100415.31;5051845;28;20763;-82
2024/01/02 07:08:19;;;;;;;;;;;;;;;10.67;49.96;100415.06;5053445;28;19921;-82
2024/01/02 07:10:44;;;;;;;;;;;;;;;10.66;49.85;100408.91;5052078;28;20545;-81
2024/01/02 07:13:09;;;;;;;;;;;;;;;10.68;50.02;100409.44;5051435;28;20465;-82
2024/01/02 07:15:34;;;;;;;;;;;;;;;10.67;49.61;100409.72;5049347;28;19936;-82
2024/01/02 07:18:00;;;;;;;;;;;;;;;10.67;49.94;100407.84;5051644;28;19924;-82
2024/01/02 07:20:25;;;;;;;;;;;;;;;10.65;50.08;100406.47;5052465;28;19924;-81
2024/01/02 07:22:50;;;;;;;;;;;;;;;10.65;50.13;100406.47;5051783;28;20733;-81
2024/01/02 07:25:16;;;;;;;;;;;;;;;10.64;49.60;100402.19;5051127;28;19924;-82
2024/01/02 07:27:41;;;;;;;;;;;;;;;10.61;49.91;100410.75;5051477;28;20873;-81
2024/01/02 07:30:08;;;;;;;;;;;;;;;10.54;49.92;100401.03;5050768;28;20756;-82
2024/01/02 07:32:34;;;;;;;;;;;;;;;10.53;50.09;100396.75;5051715;28;20534;-81
2024/01/02 07:34:59;;;;;;;;;;;;;;;10.52;49.92;100400.50;5051642;28;19991;-82
2024/01/02 07:37:25;;;;;;;;;;;;;;;10.52;49.84;100397.81;5052238;28;19925;-82
2024/01/02 07:39:51;;;;;;;;;;;;;;;10.48;49.95;100399.38;5050549;28;20117;-82
2024/01/02 07:42:17;;;;;;;;;;;;;;;10.48;50.02;100388.69;5049812;28;19973;-81
2024/01/02 07:44:42;;;;;;;;;;;;;;;10.51;50.36;100387.34;5051396;28;20327;-82
2024/01/02 07:47:07;;;;;;;;;;;;;;;10.55;50.46;100383.91;5052016;28;19931;-81
2024/01/02 07:49:33;;;;;;;;;;;;;;;10.57;50.36;100387.13;5053768;28;20034;-81
2024/01/02 07:51:58;;;;;;;;;;;;;;;10.56;49.84;100385.50;5065875;28;20181;-82
2024/01/02 07:54:24;;;;;;;;;;;;;;;10.56;50.04;100372.13;5050888;28;20865;-81
2024/01/02 07:56:49;;;;;;;;;;;;;;;10.59;49.86;100368.13;5049022;28;20368;-82
2024/01/02 07:59:19;;;;;;;;;;;;;;;10.58;49.71;100369.97;5047864;28;19931;-82
2024/01/02 08:01:45;;;;;;;;;;;;;;;10.57;50.02;100371.06;5049353;28;19931;-82
2024/01/02 08:04:10;;;;;;;;;;;;;;;10.59;49.67;100366.28;5050277;28;19928;-82
2024/01/02 08:06:35;;;;;;;;;;;;;;;10.52;49.87;100362.97;5049536;28;19924;-81
2024/01/02 08:09:00;;;;;;;;;;;;;;;10.50;50.13;100364.31;5050419;28;20633;-81
2024/01/02 08:11:26;;;;;;;;;;;;;;;10.49;50.30;100358.16;5050444;28;20013;-82
2024/01/02 08:13:51;;;;;;;;;;;;;;;10.48;50.31;100361.88;5050400;28;19927;-82
2024/01/02 08:16:16;;;;;;;;;;;;;;;10.45;49.97;100362.41;5051898;28;20033;-82
2024/01/02 08:18:43;;;;;;;;;;;;;;;10.42;49.96;100351.41;5048932;28;19999;-82
2024/01/02 08:21:08;;;;;;;;;;;;;;;10.39;50.06;100360.72;5050012;28;20653;-82
2024/01/02 08:23:38;;;;;;;;;;;;;;;10.39;50.45;100355.38;5052306;28;19924;-81
2024/01/02 08:26:05;;;;;;;;;;;;;;;10.39;50.03;100339.31;5051583;28;19920;-81
2024/01/02 08:28:30;;;;;;;;;;;;;;;10.38;50.26;100337.69;5051892;28;19925;-81
2024/01/02 08:30:55;;;;;;;;;;;;;;;10.40;50.22;100332.88;5050632;28;19924;-81
2024/01/02 08:33:20;;;;;;;;;;;;;;;10.40;50.20;100329.41;5048794;28;19956;-82
2024/01/02 08:35:46;;;;;;;;;;;;;;;10.41;50.32;100321.13;5050395;28;20377;-81
2024/01/02 08:38:13;;;;;;;;;;;;;;;10.41;50.52;100318.47;5048206;28;21349;-82
2024/01/02 08:40:38;;;;;;;;;;;;;;;10.42;50.22;100314.72;5048667;28;19921;-82
2024/01/02 08:43:04;;;;;;;;;;;;;;;10.49;50.18;100307.25;5047727;28;19994;-82
2024/01/02 08:45:29;;;;;;;;;;;;;;;10.52;50.50;100303.25;5048821;28;19925;-82
2024/01/02 08:47:54;;;;;;;;;;;;;;;10.54;50.35;100296.56;5049801;28;19973;-81
2024/01/02 08:50:20;;;;;;;;;;;;;;;10.52;50.19;100309.41;5049919;28;19956;-82
2024/01/02 08:52:47;;;;;;;;;;;;;;;10.52;50.42;100295.22;5050433;28;19924;-82
2024/01/02 08:55:13;;;;;;;;;;;;;;;10.56;50.32;100301.66;5049196;28;20467;-82
2024/01/02 08:57:38;;;;;;;;;;;;;;;10.63;50.19;100304.13;5049572;28;19951;-82
2024/01/02 09:00:04;;;;;;;;;;;;;;;10.65;50.17;100296.63;5048727;28;20317;-81
2024/01/02 09:02:29;;;;;;;;;;;;;;;10.68;50.25;100280.03;5049967;28;19917;-82
2024/01/02 09:04:54;;;;;;;;;;;;;;;10.70;50.07;100277.91;5079165;27;21427;-81
2024/01/02 09:07:20;;;;;;;;;;;;;;;10.73;50.56;100277.38;5049323;28;19921;-82
2024/01/02 09:09:45;;;;;;;;;;;;;;;10.75;50.35;100280.59;5049132;28;19924;-81
2024/01/02 09:12:10;;;;;;;;;;;;;;;10.73;49.92;100280.06;5049198;28;19960;-82
2024/01/02 09:14:36;;;;;;;;;;;;;;;10.75;50.45;100275.25;5049450;28;19927;-82
2024/01/02 09:17:01;;;;;;;;;;;;;;;10.81;50.25;100284.94;5049841;28;19924;-85
2024/01/02 09:19:26;;;;;;;;;;;;;;;10.86;50.13;100276.91;5050082;28;20019;-82
2024/01/02 09:21:52;;;;;;;;;;;;;;;10.90;50.31;100268.09;5048349;28;19931;-81
2024/01/02 09:24:18;;;;;;;;;;;;;;;10.93;50.06;100268.63;5048602;28;19935;-81
2024/01/02 09:26:44;;;;;;;;;;;;;;;10.93;50.29;100256.03;5049200;28;19920;-82
2024/01/02 09:29:10;;;;;;;;;;;;;;;10.92;50.00;100254.41;5047904;28;20451;-82
2024/01/02 09:31:35;;;;;;;;;;;;;;;10.94;50.14;100246.13;5047718;28;19932;-82
2024/01/02 09:34:00;;;;;;;;;;;;;;;11.00;50.06;100247.75;5049708;28;19925;-82
2024/01/02 09:36:29;;;;;;;;;;;;;;;11.05;50.15;100235.19;5045484;28;20040;-82
2024/01/02 09:38:54;;;;;;;;;;;;;;;11.08;50.27;100237.31;5048043;28;19974;-83
2024/01/02 09:41:31;;;;;;;;;;;;;;;11.11;50.16;100228.75;5046755;28;20015;-82
2024/01/02 09:43:59;;;;;;;;;;;;;;;11.14;49.83;100230.94;5046610;28;19925;-82
2024/01/02 09:46:25;;;;;;;;;;;;;;;11.17;49.77;100233.06;5046914;28;19924;-82
2024/01/02 09:48:57;;;;;;;;;;;;;;;11.20;49.84;100234.41;5044604;28;21955;-81
2024/01/02 09:51:28;;;;;;;;;;;;;;;11.23;49.72;100225.03;5043583;28;19931;-83
2024/01/02 09:53:53;;;;;;;;;;;;;;;11.25;49.51;100217.53;5050864;28;20058;-83
2024/01/02 09:56:30;;;;;;;;;;;;;;;11.27;49.69;100208.13;5050912;28;20210;-82
2024/01/02 09:59:13;;;;;;;;;;;;;;;11.27;50.09;100208.13;5051776;28;19921;-83
2024/01/02 10:01:44;;;;;;;;;;;;;;;11.31;50.02;100203.03;5050847;28;20652;-82
2024/01/02 10:04:12;;;;;;;;;;;;;;;11.37;49.69;100199.31;5051376;28;20453;-83
2024/01/02 10:06:51;;;;;;;;;;;;;;;11.44;49.44;100197.16;5049544;28;19944;-83
2024/01/02 10:09:29;;;;;;;;;;;;;;;11.46;49.86;100193.16;5051729;28;19934;-83
2024/01/02 10:11:57;;;;;;;;;;;;;;;11.51;49.59;100195.06;5057267;28;19921;-83
2024/01/02 10:14:41;;;;;;;;;;;;;;;11.56;49.68;100189.69;5068049;28;20281;-82
2024/01/02 10:17:17;;;;;;;;;;;;;;;11.59;49.67;100181.09;5063741;28;19955;-83
2024/01/02 10:20:03;;;;;;;;;;;;;;;11.65;49.41;100184.56;5057411;28;20473;-83
2024/01/02 10:22:38;;;;;;;;;;;;;;;11.69;49.49;100178.41;5058368;28;19944;-88
2024/01/02 10:25:13;;;;;;;;;;;;;;;11.71;49.42;100162.84;5056678;28;19952;-86
2024/01/02 10:27:43;;;;;;;;;;;;;;;11.68;49.15;100166.06;5067271;28;19920;-89
2024/01/02 10:30:11;;;;;;;;;;;;;;;11.67;49.41;100159.09;5062121;28;19924;-83
2024/01/02 10:32:36;;;;;;;;;;;;;;;11.67;49.25;100153.72;5064200;28;19959;-85
2024/01/02 10:35:15;;;;;;;;;;;;;;;11.70;49.46;100144.34;5063865;28;20014;-85
2024/01/02 10:37:47;;;;;;;;;;;;;;;11.69;49.11;100140.84;5059576;28;20465;-84
2024/01/02 10:40:23;;;;;;;;;;;;;;;11.65;49.26;100139.75;5065735;28;19925;-90
2024/01/02 10:43:07;;;;;;;;;;;;;;;11.65;48.96;100134.38;5059842;28;19935;-83
2024/01/02 10:45:32;;;;;;;;;;;;;;;11.64;49.14;100127.41;5067769;28;19982;-84
2024/01/02 10:48:07;;;;;;;;;;;;;;;11.65;49.26;100123.66;5061954;28;20537;-89
2024/01/02 10:50:44;;;;;;;;;;;;;;;11.66;49.14;100117.22;5058585;28;19964;-89
2024/01/02 10:53:09;;;;;;;;;;;;;;;11.67;49.09;100116.16;5064930;28;20455;-86
2024/01/02 10:55:40;;;;;;;;;;;;;;;11.72;49.24;100108.09;5066126;28;20015;-91
2024/01/02 10:58:10;;;;;;;;;;;;;;;11.72;49.17;100105.41;5068363;28;20556;-84
2024/01/02 11:00:39;;;;;;;;;;;;;;;11.72;49.23;100108.09;5062677;28;19967;-87
2024/01/02 11:03:10;;;;;;;;;;;;;;;11.71;49.07;100101.13;5063791;28;19921;-84
2024/01/02 11:05:42;;;;;;;;;;;;;;;11.73;49.27;100092.81;5058248;28;20316;-83
2024/01/02 11:08:16;;;;;;;;;;;;;;;11.73;49.21;100092.81;5065786;28;19927;-88
2024/01/02 11:10:49;;;;;;;;;;;;;;;11.76;49.44;100084.19;5065046;28;19939;-86
2024/01/02 11:13:16;;;;;;;;;;;;;;;11.83;49.06;100084.75;5067763;28;19935;-87
2024/01/02 11:15:43;;;;;;;;;;;;;;;11.89;49.20;100075.63;5062928;28;19920;-86
2024/01/02 11:18:11;;;;;;;;;;;;;;;11.95;48.89;100076.41;5060677;28;19931;-87
2024/01/02 11:20:47;;;;;;;;;;;;;;;11.98;49.08;100075.84;5064051;28;19939;-85
2024/01/02 11:23:15;;;;;;;;;;;;;;;12.01;49.08;100072.63;5056743;28;20501;-85
2024/01/02 11:25:47;;;;;;;;;;;;;;;12.02;49.22;100069.66;5062460;28;19966;-85
2024/01/02 11:28:15;;;;;;;;;;;;;;;12.04;48.99;100061.34;5066069;28;19975;-86
2024/01/02 11:30:42;;;;;;;;;;;;;;;12.06;48.94;100049.25;5063137;28;19917;-85
2024/01/02 11:33:29;;;;;;;;;;;;;;;12.04;49.14;100048.72;5060198;28;19973;-85
2024/01/02 11:36:13;;;;;;;;;;;;;;;12.03;48.93;100041.75;5059717;28;19931;-85
2024/01/02 11:38:58;;;;;;;;;;;;;;;12.03;49.12;100038.25;5080063;28;20014;-85
2024/01/02 11:41:27;;;;;;;;;;;;;;;11.99;49.11;100029.13;5059366;28;19956;-87
2024/01/02 11:43:59;;;;;;;;;;;;;;;11.97;49.22;100017.88;5093100;27;19943;-82
2024/01/02 11:46:27;;;;;;;;;;;;;;;11.92;49.34;100012.53;5065184;28;20389;-82
2024/01/02 11:48:58;;;;;;;;;;;;;;;11.96;49.26;100016.25;5055186;28;19998;-87
2024/01/02 11:51:28;;;;;;;;;;;;;;;11.89;49.39;100011.19;5071031;28;19921;-84
2024/01/02 11:54:06;;;;;;;;;;;;;;;11.89;49.52;100005.03;5053886;28;19920;-82
2024/01/02 11:56:36;;;;;;;;;;;;;;;11.90;49.48;100010.13;5077486;28;19940;-86
2024/01/02 11:59:04;;;;;;;;;;;;;;;11.88;49.60;99998.84;5057027;28;19920;-84
2024/01/02 12:01:45;;;;;;;;;;;;;;;11.83;49.74;99992.69;5057350;28;20000;-85
2024/01/02 12:04:33;;;;;;;;;;;;;;;11.84;49.86;99981.66;5058242;28;19931;-85
2024/01/02 12:07:13;;;;;;;;;;;;;;;11.89;49.74;99983.56;5053963;28;21273;-86
2024/01/02 12:09:49;;;;;;;;;;;;;;;11.94;49.81;99972.78;5056189;28;19919;-86
2024/01/02 12:12:35;;;;;;;;;;;;;;;11.93;49.56;99963.94;5060336;28;19943;-86
2024/01/02 12:15:00;;;;;;;;;;;;;;;11.89;49.69;99962.06;5057030;28;20044;-84
2024/01/02 12:17:28;;;;;;;;;;;;;;;11.87;49.77;99954.31;5060791;28;20579;-86
2024/01/02 12:19:58;;;;;;;;;;;;;;;11.95;49.82;99955.59;5052927;28;19942;-85
2024/01/02 12:22:23;;;;;;;;;;;;;;;11.93;49.94;99949.69;5061141;28;19924;-85
2024/01/02 12:24:49;;;;;;;;;;;;;;;11.96;50.02;99949.16;5059707;28;19932;-85
2024/01/02 12:27:15;;;;;;;;;;;;;;;11.96;49.80;99943.78;5059447;28;19919;-83
2024/01/02 12:29:48;;;;;;;;;;;;;;;11.98;49.85;99944.31;5059263;28;19929;-86
2024/01/02 12:32:19;;;;;;;;;;;;;;;12.01;49.77;99943.75;5053669;28;20297;-85
2024/01/02 12:34:49;;;;;;;;;;;;;;;12.01;49.68;99946.44;5050558;28;19924;-84
2024/01/02 12:37:34;;;;;;;;;;;;;;;12.01;49.90;99939.19;5054126;28;19921;-84